createdAt,value
2022-08-23T00:03:18.851Z,35.20
2022-08-23T00:07:22.092Z,35.35
2022-08-23T00:11:46.056Z,27.38
2022-08-23T00:15:48.405Z,29.58
2022-08-23T00:19:50.554Z,39.75
2022-08-23T00:23:52.947Z,27.52
2022-08-23T00:27:58.631Z,34.88
2022-08-23T00:32:02.312Z,35.22
2022-08-23T00:36:05.070Z,27.58
2022-08-23T00:40:10.309Z,38.50
2022-08-23T00:44:45.949Z,35.88
2022-08-23T00:48:50.121Z,43.85
2022-08-23T00:53:08.782Z,44.47
2022-08-23T00:57:15.970Z,29.02
2022-08-23T01:01:18.777Z,35.53
2022-08-23T01:05:25.144Z,38.83
2022-08-23T01:09:27.582Z,41.42
2022-08-23T01:13:40.184Z,35.72
2022-08-23T01:17:54.179Z,36.75
2022-08-23T01:22:16.254Z,40.95
2022-08-23T01:26:22.094Z,30.50
2022-08-23T01:30:29.657Z,30.75
2022-08-23T01:34:35.191Z,47.47
2022-08-23T01:38:39.219Z,44.40
2022-08-23T01:42:41.861Z,40.55
2022-08-23T01:46:47.744Z,59.45
2022-08-23T01:50:49.873Z,38.55
2022-08-23T01:54:52.177Z,35.75
2022-08-23T01:58:54.361Z,29.23
2022-08-23T02:02:59.510Z,28.45
2022-08-23T02:07:01.854Z,27.83
2022-08-23T02:11:10.254Z,19.38
2022-08-23T02:15:16.485Z,27.88
2022-08-23T02:19:22.982Z,22.50
2022-08-23T02:23:25.270Z,36.65
2022-08-23T02:27:27.730Z,29.27
2022-08-23T02:31:31.401Z,34.33
2022-08-23T02:35:33.829Z,24.42
2022-08-23T02:39:36.215Z,34.67
2022-08-23T02:43:41.268Z,36.22
2022-08-23T02:47:45.877Z,30.35
2022-08-23T02:51:57.628Z,37.67
2022-08-23T02:56:01.024Z,36.55
2022-08-23T03:00:05.860Z,42.67
2022-08-23T03:04:10.352Z,39.38
2022-08-23T03:08:13.505Z,37.22
2022-08-23T03:12:21.704Z,50.53
2022-08-23T03:16:29.470Z,49.10
2022-08-23T03:20:32.281Z,40.40
2022-08-23T03:24:36.536Z,35.33
2022-08-23T03:28:40.725Z,44.35
2022-08-23T03:32:48.962Z,32.47
2022-08-23T03:36:52.160Z,39.22
2022-08-23T03:40:54.996Z,36.72
2022-08-23T03:45:00.761Z,30.48
2022-08-23T03:49:06.382Z,30.55
2022-08-23T03:53:18.619Z,31.83
2022-08-23T03:57:22.030Z,29.83
2022-08-23T04:01:28.338Z,34.72
2022-08-23T04:05:32.798Z,28.40
2022-08-23T04:09:38.943Z,26.90
2022-08-23T04:13:43.292Z,26.50
2022-08-23T04:17:46.646Z,34.97
2022-08-23T04:21:52.779Z,31.48
2022-08-23T04:25:55.757Z,30.40
2022-08-23T04:29:59.686Z,24.50
2022-08-23T04:34:03.936Z,28.42
2022-08-23T04:38:24.483Z,32.58
2022-08-23T04:42:30.327Z,34.85
2022-08-23T04:46:32.596Z,37.85
2022-08-23T04:50:37.563Z,37.78
2022-08-23T04:54:52.613Z,30.63
2022-08-23T04:59:06.657Z,27.52
2022-08-23T05:03:08.862Z,28.52
2022-08-23T05:07:11.510Z,31.83
2022-08-23T05:11:14.325Z,30.95
2022-08-23T05:15:17.166Z,35.58
2022-08-23T05:19:24.768Z,31.63
2022-08-23T05:23:31.717Z,29.42
2022-08-23T05:27:41.102Z,28.08
2022-08-23T05:31:43.666Z,26.15
2022-08-23T05:35:51.262Z,26.33
2022-08-23T05:39:53.315Z,27.52
2022-08-23T05:43:55.768Z,37.38
2022-08-23T05:47:58.249Z,26.33
2022-08-23T05:52:21.916Z,28.17
2022-08-23T05:56:33.042Z,27.63
2022-08-23T06:00:37.970Z,27.38
2022-08-23T06:04:42.571Z,22.90
2022-08-23T06:08:47.120Z,31.27
2022-08-23T06:12:49.297Z,29.15
2022-08-23T06:16:55.858Z,27.38
2022-08-23T06:21:07.298Z,36.03
2022-08-23T06:25:38.275Z,37.10
2022-08-23T06:29:48.317Z,35.30
2022-08-23T06:34:12.316Z,30.23
2022-08-23T06:38:34.610Z,36.45
2022-08-23T06:42:55.016Z,29.80
2022-08-23T06:47:02.886Z,27.08
2022-08-23T06:51:36.262Z,28.90
2022-08-23T06:55:52.421Z,28.63
2022-08-23T07:00:06.625Z,29.30
2022-08-23T07:04:35.745Z,29.15
2022-08-23T07:08:58.875Z,27.55
2022-08-23T07:13:03.601Z,34.35
2022-08-23T07:17:06.361Z,31.67
2022-08-23T07:21:08.706Z,32.13
2022-08-23T07:25:12.398Z,33.17
2022-08-23T07:29:16.517Z,25.98
2022-08-23T07:33:18.956Z,29.17
2022-08-23T07:37:51.234Z,31.63
2022-08-23T07:41:53.571Z,22.15
2022-08-23T07:45:56.922Z,25.65
2022-08-23T07:49:59.197Z,34.13
2022-08-23T07:54:09.626Z,20.65
2022-08-23T07:58:22.095Z,29.03
2022-08-23T08:02:46.440Z,25.38
2022-08-23T08:07:17.777Z,33.90
2022-08-23T08:11:25.360Z,23.73
2022-08-23T08:15:30.725Z,20.83
2022-08-23T08:19:41.928Z,21.30
2022-08-23T08:24:04.943Z,22.50
2022-08-23T08:28:19.025Z,30.70
2022-08-23T08:32:21.738Z,29.48
2022-08-23T08:36:32.545Z,25.08
2022-08-23T08:40:40.549Z,26.83
2022-08-23T08:44:51.370Z,33.97
2022-08-23T08:49:05.245Z,22.27
2022-08-23T08:53:29.251Z,27.85
2022-08-23T08:57:42.470Z,21.95
2022-08-23T09:01:45.848Z,27.35
2022-08-23T09:06:25.669Z,34.45
2022-08-23T09:11:00.558Z,27.08
2022-08-23T09:15:23.722Z,31.95
2022-08-23T09:19:33.541Z,26.33
2022-08-23T09:23:42.495Z,26.17
2022-08-23T09:27:46.437Z,23.52
2022-08-23T09:31:55.907Z,27.55
2022-08-23T09:36:18.226Z,24.75
2022-08-23T09:40:54.215Z,24.08
2022-08-23T09:44:57.820Z,34.80
2022-08-23T09:49:23.213Z,39.58
2022-08-23T09:53:28.216Z,28.70
2022-08-23T09:57:34.331Z,19.33
2022-08-23T10:01:39.314Z,28.67
2022-08-23T10:06:00.843Z,28.40
2022-08-23T10:10:32.855Z,30.83
2022-08-23T10:14:38.214Z,34.25
2022-08-23T10:23:04.895Z,43.15
2022-08-23T10:27:44.748Z,28.25
2022-08-23T10:32:27.611Z,37.83
2022-08-23T10:36:51.051Z,29.88
2022-08-23T10:41:20.149Z,31.27
2022-08-23T10:45:40.227Z,31.13
2022-08-23T10:49:53.665Z,28.60
2022-08-23T10:54:12.794Z,29.63
2022-08-23T10:58:24.165Z,19.98
2022-08-23T11:02:38.842Z,33.03
2022-08-23T11:07:21.005Z,35.08
2022-08-23T11:11:40.409Z,46.58
2022-08-23T11:16:03.968Z,30.75
2022-08-23T11:20:12.942Z,39.40
2022-08-23T11:24:15.751Z,28.20
2022-08-23T11:28:22.321Z,33.80
2022-08-23T11:32:38.928Z,41.58
2022-08-23T11:36:41.656Z,33.58
2022-08-23T11:40:55.270Z,34.97
2022-08-23T11:45:01.552Z,37.00
2022-08-23T11:49:28.791Z,42.42
2022-08-23T11:53:31.078Z,42.97
2022-08-23T11:57:45.190Z,40.30
2022-08-23T12:01:47.615Z,35.55
2022-08-23T12:05:52.925Z,37.83
2022-08-23T12:09:56.909Z,43.08
2022-08-23T12:14:21.085Z,47.42
2022-08-23T12:18:25.537Z,35.35
2022-08-23T12:22:34.653Z,35.58
2022-08-23T12:26:50.309Z,40.80
2022-08-23T12:31:19.760Z,39.10
2022-08-23T12:35:51.130Z,56.83
2022-08-23T12:39:57.819Z,43.85
2022-08-23T12:44:06.165Z,49.08
2022-08-23T12:48:12.591Z,41.95
2022-08-23T12:52:14.597Z,42.53
2022-08-23T12:56:32.213Z,50.55
2022-08-23T13:00:50.746Z,50.73
2022-08-23T13:04:58.611Z,37.03
2022-08-23T13:09:07.993Z,54.35
2022-08-23T13:13:19.407Z,48.22
2022-08-23T13:17:27.417Z,53.17
2022-08-23T13:25:43.435Z,48.80
2022-08-23T13:30:00.462Z,42.33
2022-08-23T13:34:02.503Z,62.25
2022-08-23T13:38:10.631Z,58.70
2022-08-23T13:42:12.797Z,43.00
2022-08-23T13:46:22.884Z,59.80
2022-08-23T13:50:29.996Z,51.13
2022-08-23T13:54:33.885Z,51.05
2022-08-23T13:58:36.323Z,57.90
2022-08-23T14:02:39.376Z,59.20
2022-08-23T14:06:41.494Z,47.33
2022-08-23T14:10:44.403Z,73.35
2022-08-23T14:14:46.687Z,69.70
2022-08-23T14:23:12.076Z,65.60
2022-08-23T14:27:14.746Z,67.22
2022-08-23T14:31:17.426Z,66.68
2022-08-23T14:35:19.773Z,70.97
2022-08-23T14:39:22.750Z,62.05
2022-08-23T14:43:26.959Z,71.18
2022-08-23T14:47:29.485Z,56.35
2022-08-23T14:51:38.116Z,43.35
2022-08-23T14:55:46.334Z,56.42
2022-08-23T14:59:48.634Z,56.10
2022-08-23T15:03:51.679Z,52.83
2022-08-23T15:07:54.314Z,58.25
2022-08-23T15:16:21.750Z,50.03
2022-08-23T15:20:29.475Z,65.28
2022-08-23T15:24:33.323Z,56.35
2022-08-23T15:28:36.187Z,83.50
2022-08-23T15:32:38.514Z,73.60
2022-08-23T15:36:43.525Z,70.68
2022-08-23T15:40:46.503Z,47.78
2022-08-23T15:44:49.404Z,65.70
2022-08-23T15:48:56.270Z,57.88
2022-08-23T15:52:59.280Z,63.90
2022-08-23T15:57:01.842Z,42.45
2022-08-23T16:01:04.427Z,51.83
2022-08-23T16:05:09.670Z,93.05
2022-08-23T16:09:19.849Z,60.42
2022-08-23T16:13:23.083Z,56.50
2022-08-23T16:17:25.731Z,64.47
2022-08-23T16:21:29.906Z,70.07
2022-08-23T16:25:32.112Z,53.70
2022-08-23T16:29:36.336Z,58.17
2022-08-23T16:33:39.051Z,50.03
2022-08-23T16:37:41.392Z,76.65
2022-08-23T16:41:43.406Z,63.85
2022-08-23T16:45:46.120Z,75.93
2022-08-23T16:49:48.404Z,59.67
2022-08-23T16:54:01.840Z,38.20
2022-08-23T16:58:07.950Z,36.63
2022-08-23T17:02:26.591Z,29.23
2022-08-23T17:06:28.970Z,31.30
2022-08-23T17:10:31.265Z,36.35
2022-08-23T17:14:33.619Z,30.45
2022-08-23T17:18:37.398Z,36.13
2022-08-23T17:22:39.946Z,34.88
2022-08-23T17:26:42.685Z,19.90
2022-08-23T17:30:44.712Z,21.48
2022-08-23T17:34:47.497Z,24.00
2022-08-23T17:38:49.503Z,25.40
2022-08-23T17:42:52.492Z,27.38
2022-08-23T17:46:55.087Z,28.67
2022-08-23T17:50:59.779Z,24.30
2022-08-23T17:55:02.353Z,21.25
2022-08-23T17:59:06.011Z,28.42
2022-08-23T18:03:08.136Z,21.00
2022-08-23T18:07:11.181Z,27.27
2022-08-23T18:11:13.973Z,27.38
2022-08-23T18:15:16.945Z,21.98
2022-08-23T18:19:19.174Z,22.55
2022-08-23T18:23:21.735Z,29.42
2022-08-23T18:27:42.400Z,24.77
2022-08-23T18:31:45.145Z,29.63
2022-08-23T18:35:47.362Z,35.65
2022-08-23T18:39:49.777Z,23.88
2022-08-23T18:43:52.230Z,21.83
2022-08-23T18:47:54.545Z,21.85
2022-08-23T18:51:56.919Z,16.67
2022-08-23T18:55:59.342Z,19.88
2022-08-23T19:00:02.521Z,23.88
2022-08-23T19:04:07.181Z,25.75
2022-08-23T19:08:13.601Z,18.48
2022-08-23T19:12:17.839Z,22.23
2022-08-23T19:16:22.067Z,21.63
2022-08-23T19:20:25.753Z,20.17
2022-08-23T19:24:28.778Z,15.18
2022-08-23T19:28:33.005Z,19.45
2022-08-23T19:32:35.497Z,11.70
2022-08-23T19:36:47.532Z,20.00
2022-08-23T19:40:52.435Z,19.58
2022-08-23T19:44:55.118Z,16.00
2022-08-23T19:48:57.813Z,14.25
2022-08-23T19:53:00.232Z,13.60
2022-08-23T19:57:02.604Z,20.05
2022-08-23T20:01:05.108Z,16.98
2022-08-23T20:05:08.500Z,19.27
2022-08-23T20:09:36.143Z,12.87
2022-08-23T20:13:38.337Z,15.10
2022-08-23T20:17:41.294Z,9.10
2022-08-23T20:21:44.083Z,18.48
2022-08-23T20:25:46.331Z,15.38
2022-08-23T20:29:48.507Z,12.02
2022-08-23T20:33:51.620Z,15.10
2022-08-23T20:37:53.625Z,14.23
2022-08-23T20:41:56.326Z,14.25
2022-08-23T20:45:59.893Z,21.38
2022-08-23T20:50:02.845Z,22.73
2022-08-23T20:54:06.445Z,16.73
2022-08-23T20:58:09.138Z,15.23
2022-08-23T21:02:11.347Z,16.08
2022-08-23T21:06:24.047Z,13.43
2022-08-23T21:10:27.690Z,13.90
2022-08-23T21:14:30.011Z,14.80
2022-08-23T21:18:32.205Z,17.17
2022-08-23T21:22:34.435Z,19.08
2022-08-23T21:26:37.348Z,13.98
2022-08-23T21:30:39.757Z,18.67
2022-08-23T21:34:41.898Z,22.17
2022-08-23T21:38:45.410Z,13.07
2022-08-23T21:42:47.895Z,15.57
2022-08-23T21:46:50.196Z,13.38
2022-08-23T21:50:52.638Z,17.05
2022-08-23T21:54:54.985Z,16.10
2022-08-23T21:59:02.445Z,18.95
2022-08-23T22:03:05.729Z,22.52
2022-08-23T22:07:08.424Z,19.58
2022-08-23T22:11:11.433Z,14.75
2022-08-23T22:15:14.643Z,14.80
2022-08-23T22:19:18.746Z,20.35
2022-08-23T22:23:21.428Z,12.75
2022-08-23T22:27:23.704Z,17.67
2022-08-23T22:31:26.053Z,19.30
2022-08-23T22:35:29.069Z,29.15
2022-08-23T22:39:31.108Z,21.55
2022-08-23T22:43:33.498Z,19.02
2022-08-23T22:47:35.813Z,14.50
2022-08-23T22:51:38.340Z,17.20
2022-08-23T22:55:42.167Z,13.10
2022-08-23T22:59:44.546Z,23.17
2022-08-23T23:03:46.908Z,16.88
2022-08-23T23:08:09.990Z,13.38
2022-08-23T23:12:13.283Z,14.68
2022-08-23T23:16:20.818Z,15.48
2022-08-23T23:20:39.946Z,21.58
2022-08-23T23:24:42.412Z,15.57
2022-08-23T23:28:44.605Z,17.85
2022-08-23T23:32:47.229Z,12.57
2022-08-23T23:36:49.881Z,11.27
2022-08-23T23:40:52.164Z,18.70
2022-08-23T23:44:54.264Z,15.85
2022-08-23T23:48:56.480Z,10.90
2022-08-23T23:52:58.714Z,19.30
2022-08-23T23:57:03.443Z,10.90
